Time;durP1;ratioP1;P1;durP2;ratioP2;P2;SDS_P1;SDS_P2;PMS_P1;PMS_P2;Temp;Humidity;BMP_temperature;BMP_pressure;BME280_temperature;BME280_humidity;BME280_pressure;Samples;Min_cycle;Max_cycle;Signal;HPM_P1;HPM_P2
2022/03/30 00:01:20;;;;;;;11.20;9.50;;;;;;;11.69;66.91;97416.38;4154586;28;20200;-54
2022/03/30 00:03:22;;;;;;;11.35;9.93;;;;;;;11.65;67.05;97407.06;4151554;28;20299;-53
2022/03/30 00:05:24;;;;;;;13.02;10.40;;;;;;;11.66;66.91;97400.50;4153823;28;20213;-54
2022/03/30 00:07:31;;;;;;;10.27;9.20;;;;;;;11.69;66.87;97405.41;4120863;28;20206;-55
2022/03/30 00:09:33;;;;;;;11.68;10.60;;;;;;;11.68;67.00;97406.50;4135358;28;20213;-54
2022/03/30 00:11:35;;;;;;;11.52;8.30;;;;;;;11.67;66.79;97406.78;4151316;28;20229;-54
2022/03/30 00:13:37;;;;;;;12.95;9.05;;;;;;;11.67;66.93;97409.53;4136332;28;20307;-54
2022/03/30 00:15:39;;;;;;;10.02;9.13;;;;;;;11.64;66.67;97408.16;4151060;28;20196;-54
2022/03/30 00:17:40;;;;;;;11.00;9.50;;;;;;;11.62;66.27;97409.56;4149285;28;20196;-55
2022/03/30 00:19:43;;;;;;;9.43;8.05;;;;;;;11.62;66.87;97412.28;4134498;28;20203;-54
2022/03/30 00:21:45;;;;;;;14.13;10.00;;;;;;;11.43;67.62;97405.81;4153486;28;20590;-54
2022/03/30 00:23:47;;;;;;;12.27;11.10;;;;;;;11.36;67.81;97405.28;4131972;28;20218;-55
2022/03/30 00:25:49;;;;;;;11.40;8.65;;;;;;;11.27;68.18;97406.97;4136265;28;20332;-55
2022/03/30 00:27:51;;;;;;;15.55;9.88;;;;;;;11.00;70.06;97412.88;4152897;28;20239;-54
2022/03/30 00:29:52;;;;;;;10.25;9.25;;;;;;;11.10;69.75;97412.00;4151838;28;20243;-56
2022/03/30 00:31:54;;;;;;;11.75;10.60;;;;;;;11.06;70.36;97411.75;4150120;28;20244;-56
2022/03/30 00:33:56;;;;;;;16.55;10.55;;;;;;;11.12;70.60;97415.28;4149555;28;20275;-55
2022/03/30 00:35:57;;;;;;;13.38;10.43;;;;;;;11.06;70.43;97419.97;4134232;28;21290;-55
2022/03/30 00:38:00;;;;;;;15.13;10.38;;;;;;;10.88;70.97;97409.63;4132357;28;20346;-54
2022/03/30 00:40:04;;;;;;;12.75;11.57;;;;;;;10.90;70.87;97418.38;4148914;28;20205;-56
2022/03/30 00:42:20;;;;;;;10.90;9.50;;;;;;;10.93;70.82;97412.34;4152924;28;20231;-53
2022/03/30 00:44:22;;;;;;;11.70;9.25;;;;;;;11.03;70.40;97415.03;4150657;28;20566;-54
2022/03/30 00:46:25;;;;;;;9.07;8.27;;;;;;;11.07;70.46;97402.44;4152005;28;20207;-54
2022/03/30 00:48:27;;;;;;;11.50;9.05;;;;;;;10.95;70.79;97399.19;4150255;28;20213;-55
2022/03/30 00:50:28;;;;;;;11.20;8.88;;;;;;;10.96;70.90;97389.88;4148592;28;20208;-56
2022/03/30 00:52:30;;;;;;;15.38;10.80;;;;;;;10.93;71.13;97397.84;4134397;28;20234;-55
2022/03/30 00:54:32;;;;;;;9.48;8.60;;;;;;;10.85;71.61;97391.00;4153439;28;20223;-54
2022/03/30 00:56:36;;;;;;;10.80;9.55;;;;;;;10.84;71.70;97381.16;4135411;28;20211;-54
2022/03/30 00:58:37;;;;;;;11.30;10.13;;;;;;;10.88;71.47;97384.16;4139017;28;20214;-54
2022/03/30 01:00:39;;;;;;;9.38;8.55;;;;;;;10.94;70.92;97374.84;4135082;28;20808;-55
2022/03/30 01:02:43;;;;;;;14.07;10.70;;;;;;;10.99;71.30;97375.66;4134632;28;20291;-55
2022/03/30 01:04:45;;;;;;;8.38;7.57;;;;;;;11.02;70.80;97375.06;4148860;28;20332;-55
2022/03/30 01:06:47;;;;;;;10.07;9.13;;;;;;;11.05;70.82;97370.97;4134546;28;20244;-55
2022/03/30 01:08:49;;;;;;;10.00;8.63;;;;;;;11.06;71.08;97367.97;4151452;28;20201;-53
2022/03/30 01:10:51;;;;;;;8.98;7.95;;;;;;;11.09;70.77;97372.84;4150551;28;20693;-54
2022/03/30 01:12:54;;;;;;;15.15;8.27;;;;;;;11.07;71.88;97364.13;4132266;28;20794;-54
2022/03/30 01:14:56;;;;;;;11.82;10.30;;;;;;;11.04;71.92;97366.59;4149903;28;20201;-54
2022/03/30 01:16:58;;;;;;;9.65;8.70;;;;;;;10.88;72.45;97346.69;4134119;28;20686;-54
2022/03/30 01:19:05;;;;;;;11.05;9.93;;;;;;;10.79;72.63;97342.88;4148844;28;20197;-55
2022/03/30 01:21:11;;;;;;;12.52;10.10;;;;;;;10.68;72.92;97348.66;4148541;28;20215;-53
2022/03/30 01:23:12;;;;;;;13.13;11.88;;;;;;;10.31;74.43;97347.41;4133194;28;20702;-53
2022/03/30 01:25:14;;;;;;;11.68;10.27;;;;;;;10.30;74.42;97340.31;4149723;28;20219;-55
2022/03/30 01:27:16;;;;;;;13.55;10.88;;;;;;;10.39;74.00;97338.63;4119862;28;20236;-56
2022/03/30 01:34:00;;;;;;;17.38;10.00;;;;;;;10.45;74.06;97323.84;4134239;28;20217;-56
2022/03/30 01:36:01;;;;;;;11.32;9.68;;;;;;;10.58;73.38;97323.25;4132696;28;22094;-57
2022/03/30 01:38:03;;;;;;;10.23;9.23;;;;;;;10.65;73.21;97315.56;4135730;28;20221;-54
2022/03/30 01:40:06;;;;;;;12.88;10.90;;;;;;;10.63;73.59;97317.78;4151775;28;20411;-54
2022/03/30 01:42:09;;;;;;;12.85;8.88;;;;;;;10.68;72.58;97315.03;4139365;28;20221;-56
2022/03/30 01:44:11;;;;;;;9.73;8.80;;;;;;;10.70;72.61;97312.81;4155252;28;20209;-55
2022/03/30 01:46:13;;;;;;;11.05;9.05;;;;;;;10.75;72.45;97301.88;4153304;28;20256;-55
2022/03/30 01:48:15;;;;;;;10.27;9.27;;;;;;;10.77;72.15;97296.94;4150533;28;20678;-55
2022/03/30 01:50:17;;;;;;;10.80;9.85;;;;;;;10.81;72.07;97298.00;4154380;28;20201;-54
2022/03/30 01:52:19;;;;;;;14.20;8.57;;;;;;;10.82;72.11;97289.50;4153535;28;20228;-55
2022/03/30 01:54:27;;;;;;;12.38;11.02;;;;;;;10.82;72.03;97288.69;4137631;28;21947;-56
2022/03/30 01:56:28;;;;;;;10.77;8.80;;;;;;;10.87;72.26;97285.94;4151043;28;20767;-55
2022/03/30 01:58:30;;;;;;;12.95;10.57;;;;;;;10.85;71.84;97288.97;4137918;28;20315;-55
2022/03/30 02:00:32;;;;;;;11.40;10.40;;;;;;;10.88;71.67;97275.53;4135944;28;20239;-55
2022/03/30 02:02:34;;;;;;;10.15;9.07;;;;;;;10.78;71.76;97278.31;4150192;28;20788;-55
2022/03/30 02:04:40;;;;;;;9.38;8.02;;;;;;;10.82;71.50;97277.75;4153807;28;20250;-56
2022/03/30 02:06:42;;;;;;;12.25;9.15;;;;;;;10.82;71.51;97272.28;4136548;28;20636;-54
2022/03/30 02:08:44;;;;;;;9.20;8.30;;;;;;;10.78;71.45;97270.09;4138197;28;20251;-54
2022/03/30 02:10:45;;;;;;;9.43;8.52;;;;;;;10.56;72.57;97268.03;4120765;28;20214;-55
2022/03/30 02:12:47;;;;;;;8.95;8.07;;;;;;;10.66;72.06;97267.97;4151274;28;20229;-54
2022/03/30 02:14:51;;;;;;;10.73;7.70;;;;;;;10.65;71.93;97266.34;4148296;28;20209;-56
2022/03/30 02:16:54;;;;;;;9.20;7.78;;;;;;;10.65;71.46;97266.34;4135465;28;20221;-54
2022/03/30 02:18:56;;;;;;;10.55;8.43;;;;;;;10.64;71.87;97264.72;4149453;28;20213;-55
2022/03/30 02:20:57;;;;;;;10.05;8.52;;;;;;;10.64;71.65;97253.75;4151671;28;20209;-54
2022/03/30 02:22:59;;;;;;;10.48;8.05;;;;;;;10.54;72.41;97253.84;4136165;28;20256;-56
2022/03/30 02:25:01;;;;;;;10.07;9.07;;;;;;;10.54;72.46;97256.56;4135635;28;20202;-54
2022/03/30 02:27:03;;;;;;;9.57;8.40;;;;;;;10.52;72.15;97254.09;4135038;28;20326;-55
2022/03/30 02:29:06;;;;;;;9.75;8.60;;;;;;;10.51;72.40;97243.44;4153845;28;20212;-53
2022/03/30 02:31:08;;;;;;;9.18;8.27;;;;;;;10.43;72.97;97241.28;4150296;28;20209;-53
2022/03/30 02:33:10;;;;;;;11.65;8.73;;;;;;;10.37;72.57;97245.13;4153538;28;20690;-54
2022/03/30 02:35:12;;;;;;;8.70;7.93;;;;;;;10.38;72.49;97233.94;4135229;28;20231;-53
2022/03/30 02:37:14;;;;;;;13.77;9.07;;;;;;;10.41;72.61;97238.03;4149242;28;20216;-54
2022/03/30 02:39:18;;;;;;;11.20;7.88;;;;;;;10.43;72.59;97238.56;4148254;28;20292;-55
2022/03/30 02:41:19;;;;;;;8.48;7.60;;;;;;;10.31;72.84;97232.59;4134548;28;20299;-55
2022/03/30 02:43:21;;;;;;;8.93;8.02;;;;;;;10.35;72.36;97228.22;4137318;28;20433;-54
2022/03/30 02:45:23;;;;;;;15.23;7.50;;;;;;;10.38;72.04;97233.09;4135707;28;20256;-55
2022/03/30 02:49:45;;;;;;;8.05;7.20;;;;;;;10.33;71.80;97216.72;4133658;28;20272;-53
2022/03/30 02:51:51;;;;;;;9.77;8.88;;;;;;;10.34;71.65;97215.63;4150374;28;20233;-54
2022/03/30 02:53:54;;;;;;;11.50;7.95;;;;;;;10.38;71.42;97225.72;4150568;28;20263;-55
2022/03/30 02:55:56;;;;;;;9.07;6.78;;;;;;;10.37;71.84;97220.53;4150843;28;20661;-54
2022/03/30 02:57:57;;;;;;;7.78;6.97;;;;;;;10.38;71.36;97216.69;4122792;28;20249;-55
2022/03/30 02:59:59;;;;;;;9.75;7.38;;;;;;;10.38;71.40;97219.44;4138774;28;20237;-55
2022/03/30 03:02:01;;;;;;;7.80;6.45;;;;;;;10.40;71.24;97220.78;4134025;28;20769;-55
2022/03/30 03:04:09;;;;;;;11.50;7.75;;;;;;;10.30;71.64;97217.28;4147861;28;20259;-55
2022/03/30 03:06:11;;;;;;;9.60;7.57;;;;;;;10.31;71.54;97219.75;4120123;28;20210;-55
2022/03/30 03:08:12;;;;;;;7.95;7.25;;;;;;;10.31;71.60;97205.25;4149102;28;20671;-55
2022/03/30 03:10:14;;;;;;;8.30;6.32;;;;;;;10.33;71.24;97206.59;4121170;28;20274;-53
2022/03/30 03:12:16;;;;;;;8.43;6.90;;;;;;;10.34;71.24;97210.16;4134797;28;20253;-54
2022/03/30 03:14:17;;;;;;;7.82;6.72;;;;;;;10.36;71.33;97207.97;4134844;28;20257;-53
2022/03/30 03:16:19;;;;;;;7.35;6.65;;;;;;;10.34;71.53;97210.16;4146994;28;20248;-54
2022/03/30 03:18:21;;;;;;;8.98;7.68;;;;;;;10.33;71.50;97205.78;4151080;28;20672;-54
2022/03/30 03:20:22;;;;;;;8.35;7.25;;;;;;;10.30;70.87;97203.63;4135665;28;20210;-54
2022/03/30 03:22:24;;;;;;;7.80;6.97;;;;;;;10.29;70.97;97199.25;4147728;28;20244;-54
2022/03/30 03:24:26;;;;;;;6.18;5.57;;;;;;;10.17;71.58;97204.22;4120648;28;20206;-54
2022/03/30 03:26:28;;;;;;;6.22;5.63;;;;;;;10.22;70.73;97204.19;4135871;28;20256;-53
2022/03/30 03:28:30;;;;;;;6.43;5.85;;;;;;;10.23;70.90;97208.56;4149845;28;20210;-53
2022/03/30 03:30:32;;;;;;;7.80;7.10;;;;;;;10.25;71.00;97207.19;4152619;28;20201;-53
2022/03/30 03:32:34;;;;;;;8.32;6.72;;;;;;;10.25;71.11;97200.91;4138948;28;20242;-54
2022/03/30 03:34:38;;;;;;;11.80;6.35;;;;;;;10.27;70.49;97204.19;4153188;28;20258;-53
2022/03/30 03:36:40;;;;;;;9.00;6.07;;;;;;;10.26;70.96;97205.25;4150074;28;20212;-54
2022/03/30 03:38:42;;;;;;;7.57;6.78;;;;;;;10.26;70.99;97202.53;4151067;28;20209;-54
2022/03/30 03:40:43;;;;;;;10.23;7.63;;;;;;;10.23;71.34;97197.63;4134759;28;20197;-54
2022/03/30 03:42:45;;;;;;;5.43;4.78;;;;;;;10.20;71.09;97195.44;4118114;28;20246;-54
2022/03/30 03:44:47;;;;;;;7.18;6.25;;;;;;;10.19;71.03;97199.28;4136214;28;20683;-53
2022/03/30 03:46:49;;;;;;;8.18;6.97;;;;;;;10.18;70.95;97194.91;4150477;28;20216;-54
2022/03/30 03:48:51;;;;;;;7.38;5.80;;;;;;;10.11;71.16;97195.22;4150365;28;20704;-54
2022/03/30 03:50:53;;;;;;;6.60;5.97;;;;;;;10.11;71.11;97197.97;4134290;28;20209;-55
2022/03/30 03:52:55;;;;;;;5.97;5.47;;;;;;;10.14;70.68;97199.31;4136976;28;20606;-54
2022/03/30 03:54:57;;;;;;;6.45;5.82;;;;;;;10.15;70.55;97200.94;4150587;28;20237;-55
2022/03/30 03:56:59;;;;;;;6.32;5.68;;;;;;;10.14;70.52;97197.38;4134224;28;20606;-54
2022/03/30 03:59:01;;;;;;;7.50;6.72;;;;;;;10.14;71.17;97197.38;4135217;28;20276;-54
2022/03/30 04:01:03;;;;;;;7.13;5.95;;;;;;;10.07;71.95;97193.34;4129761;28;20214;-54
2022/03/30 04:03:05;;;;;;;8.13;6.85;;;;;;;10.16;71.29;97199.84;4150931;28;20228;-54
2022/03/30 04:05:11;;;;;;;13.55;7.38;;;;;;;10.04;71.98;97204.81;4152617;28;20787;-53
2022/03/30 04:07:12;;;;;;;6.53;5.63;;;;;;;9.76;72.97;97210.88;4150428;28;20204;-54
2022/03/30 04:09:14;;;;;;;8.30;6.30;;;;;;;9.74;73.16;97213.06;4150761;28;20207;-54
2022/03/30 04:11:16;;;;;;;8.60;7.18;;;;;;;9.67;73.64;97209.81;4148647;28;20254;-54
2022/03/30 04:13:18;;;;;;;7.63;6.85;;;;;;;9.69;73.77;97207.63;4152964;28;20710;-54
2022/03/30 04:15:19;;;;;;;6.70;6.07;;;;;;;9.67;73.44;97198.88;4134101;28;20213;-54
2022/03/30 04:17:21;;;;;;;8.27;6.63;;;;;;;9.75;73.57;97203.78;4148181;28;20209;-54
2022/03/30 04:19:23;;;;;;;7.93;6.20;;;;;;;9.82;72.97;97213.31;4149407;28;20699;-54
2022/03/30 04:21:25;;;;;;;8.27;5.70;;;;;;;9.87;73.26;97201.56;4149265;28;20201;-54
2022/03/30 04:23:26;;;;;;;8.48;7.15;;;;;;;9.87;72.83;97198.84;4117282;28;20692;-54
2022/03/30 04:25:28;;;;;;;6.15;5.45;;;;;;;9.52;73.39;97196.16;4151532;28;20205;-53
2022/03/30 04:27:30;;;;;;;8.65;7.10;;;;;;;9.50;73.01;97192.91;4133236;28;20205;-54
2022/03/30 04:29:31;;;;;;;7.25;6.50;;;;;;;9.31;73.23;97194.56;4147273;28;20327;-54
2022/03/30 04:31:33;;;;;;;9.40;8.40;;;;;;;9.46;72.69;97183.59;4152457;28;20283;-54
2022/03/30 04:33:36;;;;;;;6.97;6.22;;;;;;;9.49;72.95;97192.06;4133457;28;20284;-54
2022/03/30 04:35:38;;;;;;;7.93;5.55;;;;;;;9.55;72.98;97190.16;4149980;28;20213;-54
2022/03/30 04:37:40;;;;;;;5.90;5.30;;;;;;;9.62;72.66;97193.44;4148285;28;20677;-54
2022/03/30 04:39:42;;;;;;;6.63;5.25;;;;;;;9.76;72.57;97189.03;4136345;28;20202;-54
2022/03/30 04:41:44;;;;;;;8.18;7.38;;;;;;;9.71;72.83;97183.56;4136671;28;20271;-53
2022/03/30 04:43:46;;;;;;;7.95;7.15;;;;;;;9.55;73.78;97176.50;4151682;28;20209;-54
2022/03/30 04:45:47;;;;;;;7.68;6.97;;;;;;;9.40;74.20;97168.31;4151169;28;20209;-54
2022/03/30 04:47:50;;;;;;;9.85;8.00;;;;;;;9.15;75.19;97162.91;4129641;28;20778;-54
2022/03/30 04:49:55;;;;;;;8.30;7.50;;;;;;;9.29;74.62;97164.00;4148576;28;20218;-55
2022/03/30 04:51:57;;;;;;;9.05;7.82;;;;;;;9.35;74.48;97168.34;4134380;28;20229;-54
2022/03/30 04:53:59;;;;;;;11.20;8.02;;;;;;;9.14;73.33;97177.66;4149201;28;20233;-53
2022/03/30 04:56:00;;;;;;;7.13;6.40;;;;;;;9.11;73.34;97175.47;4132929;28;20220;-54
2022/03/30 04:58:02;;;;;;;7.53;6.82;;;;;;;9.17;72.80;97171.66;4149483;28;20598;-54
2022/03/30 05:00:10;;;;;;;7.45;6.28;;;;;;;9.20;72.65;97182.00;4149526;28;20205;-56
2022/03/30 05:02:12;;;;;;;11.52;8.13;;;;;;;9.10;72.44;97179.28;4153465;28;20224;-55
2022/03/30 05:04:13;;;;;;;7.78;7.05;;;;;;;8.94;73.19;97183.13;4136503;28;20224;-55
2022/03/30 05:06:15;;;;;;;6.88;6.07;;;;;;;8.91;73.15;97175.47;4133663;28;20296;-54
2022/03/30 05:08:17;;;;;;;9.50;8.02;;;;;;;9.06;72.89;97175.44;4135947;28;20719;-54
2022/03/30 05:10:19;;;;;;;7.22;6.50;;;;;;;8.81;74.01;97183.66;4149797;28;20232;-55
2022/03/30 05:12:21;;;;;;;7.03;6.30;;;;;;;8.92;73.98;97180.66;4135564;28;20233;-55
2022/03/30 05:14:23;;;;;;;10.57;6.90;;;;;;;8.90;73.74;97182.81;4136774;28;20233;-55
2022/03/30 05:16:25;;;;;;;8.40;7.60;;;;;;;8.77;74.78;97177.09;4139633;28;20239;-57
2022/03/30 05:18:28;;;;;;;7.55;6.88;;;;;;;8.80;74.86;97171.06;4139623;28;20658;-55
2022/03/30 05:20:34;;;;;;;6.22;5.57;;;;;;;8.85;74.61;97184.72;4156247;28;20201;-55
2022/03/30 05:22:36;;;;;;;8.02;5.65;;;;;;;8.90;74.96;97176.56;4153085;28;20229;-56
2022/03/30 05:24:38;;;;;;;8.77;6.63;;;;;;;9.05;74.34;97173.81;4137502;28;20236;-55
2022/03/30 05:26:40;;;;;;;7.35;6.60;;;;;;;9.08;74.00;97173.28;4141502;28;20206;-60
2022/03/30 05:28:42;;;;;;;12.55;7.53;;;;;;;8.88;73.41;97173.28;4150983;28;20624;-61
2022/03/30 05:30:43;;;;;;;9.85;7.25;;;;;;;8.85;73.52;97171.09;4144357;28;20213;-57
2022/03/30 05:32:46;;;;;;;9.57;8.40;;;;;;;8.95;72.78;97169.19;4149659;28;20471;-53
2022/03/30 05:34:48;;;;;;;8.10;6.63;;;;;;;9.01;72.81;97178.22;4136193;28;20205;-53
2022/03/30 05:36:50;;;;;;;7.65;6.68;;;;;;;9.08;72.74;97181.47;4138787;28;20217;-54
2022/03/30 05:38:51;;;;;;;6.80;6.10;;;;;;;9.16;72.66;97170.00;4136589;28;20258;-53
2022/03/30 05:40:53;;;;;;;9.15;6.65;;;;;;;9.17;72.15;97171.66;4153811;28;20215;-53
2022/03/30 05:42:55;;;;;;;8.85;8.02;;;;;;;9.14;72.69;97174.94;4139045;28;20752;-55
2022/03/30 05:44:57;;;;;;;6.53;5.85;;;;;;;9.29;72.10;97174.91;4137817;28;20206;-54
2022/03/30 05:46:59;;;;;;;7.88;7.07;;;;;;;9.24;71.81;97169.44;4138751;28;20436;-54
2022/03/30 05:49:02;;;;;;;7.95;6.38;;;;;;;9.21;72.24;97172.75;4140726;28;20209;-53
2022/03/30 05:51:04;;;;;;;11.25;7.63;;;;;;;9.19;72.11;97174.91;4153916;28;20271;-55
2022/03/30 05:53:06;;;;;;;9.00;7.03;;;;;;;9.00;73.19;97176.53;4153857;28;20239;-54
2022/03/30 05:55:09;;;;;;;14.73;7.38;;;;;;;8.98;72.55;97182.28;4138506;28;20199;-54
2022/03/30 05:57:11;;;;;;;7.82;6.40;;;;;;;8.99;72.53;97183.09;4138255;28;20209;-55
2022/03/30 05:59:15;;;;;;;6.93;6.25;;;;;;;9.05;72.39;97190.19;4151532;28;20217;-54
2022/03/30 06:01:16;;;;;;;8.98;8.10;;;;;;;8.91;73.09;97189.09;4137274;28;20210;-54
2022/03/30 06:03:27;;;;;;;7.88;7.13;;;;;;;8.73;72.89;97175.97;4140554;28;20209;-54
2022/03/30 06:05:29;;;;;;;7.47;6.78;;;;;;;8.72;73.42;97185.25;4123342;28;20208;-54
2022/03/30 06:07:30;;;;;;;8.27;7.47;;;;;;;8.77;73.64;97179.81;4140695;28;20213;-55
2022/03/30 06:09:33;;;;;;;8.10;7.25;;;;;;;8.83;72.92;97187.72;4136628;28;20210;-53
2022/03/30 06:11:49;;;;;;;7.38;6.68;;;;;;;8.84;73.33;97183.09;4138235;28;20347;-53
2022/03/30 06:13:58;;;;;;;8.43;7.57;;;;;;;8.85;73.16;97184.72;4136822;28;20309;-54
2022/03/30 06:16:15;;;;;;;7.63;6.00;;;;;;;8.67;74.08;97179.78;4140502;28;20214;-53
2022/03/30 06:18:17;;;;;;;9.27;8.15;;;;;;;8.69;74.10;97181.16;4155984;28;20205;-55
2022/03/30 06:20:19;;;;;;;11.90;8.13;;;;;;;8.60;74.30;97182.78;4139672;28;20209;-53
2022/03/30 06:22:25;;;;;;;7.10;6.47;;;;;;;8.58;74.51;97184.16;4156496;28;20231;-51
2022/03/30 06:24:36;;;;;;;11.02;8.15;;;;;;;8.63;74.65;97182.25;4138714;28;20201;-51
2022/03/30 06:26:39;;;;;;;8.88;8.05;;;;;;;8.61;74.52;97189.06;4153478;28;20236;-53
2022/03/30 06:28:41;;;;;;;8.48;7.25;;;;;;;8.70;74.01;97187.44;4141355;28;20218;-52
2022/03/30 06:30:43;;;;;;;7.80;6.78;;;;;;;8.81;73.50;97189.09;4120858;28;20236;-52
2022/03/30 06:32:49;;;;;;;6.43;5.75;;;;;;;8.65;74.04;97195.59;4150874;28;20265;-52
2022/03/30 06:34:51;;;;;;;9.15;6.70;;;;;;;8.52;74.42;97185.22;4137763;28;20225;-52
2022/03/30 06:36:53;;;;;;;9.20;6.78;;;;;;;8.63;73.90;97186.88;4138203;28;20284;-53
2022/03/30 06:38:55;;;;;;;8.20;7.47;;;;;;;8.62;73.58;97196.97;4138755;28;20748;-51
2022/03/30 06:40:57;;;;;;;8.75;7.82;;;;;;;8.47;74.74;97202.38;4154643;28;20205;-52
2022/03/30 06:43:00;;;;;;;8.02;7.32;;;;;;;8.29;75.62;97196.63;4157538;28;20235;-52
2022/03/30 06:45:02;;;;;;;8.93;6.43;;;;;;;8.14;75.74;97204.69;4140524;28;20646;-51
2022/03/30 06:47:04;;;;;;;8.32;7.57;;;;;;;7.94;76.93;97193.72;4139361;28;20209;-53
2022/03/30 06:49:06;;;;;;;7.55;6.55;;;;;;;7.93;76.62;97186.63;4137953;28;20213;-53
2022/03/30 06:51:12;;;;;;;9.57;7.10;;;;;;;7.87;77.33;97190.41;4139835;28;20213;-53
2022/03/30 06:53:14;;;;;;;9.68;5.90;;;;;;;7.86;77.15;97188.78;4153426;28;20749;-51
2022/03/30 06:55:16;;;;;;;11.25;9.25;;;;;;;7.98;77.00;97183.94;4154292;28;20315;-52
2022/03/30 06:57:20;;;;;;;7.82;7.03;;;;;;;8.02;76.91;97185.84;4138165;28;20316;-53
2022/03/30 06:59:22;;;;;;;11.27;9.93;;;;;;;7.99;77.25;97180.13;4142521;28;20214;-52
2022/03/30 07:01:24;;;;;;;8.13;7.32;;;;;;;8.07;76.98;97194.06;4144647;28;20205;-52
2022/03/30 07:03:28;;;;;;;9.13;8.23;;;;;;;8.09;77.44;97186.41;4155776;28;20295;-53
2022/03/30 07:05:31;;;;;;;8.95;8.15;;;;;;;8.19;75.96;97180.19;4160453;28;20578;-52
2022/03/30 07:10:27;;;;;;;7.32;6.63;;;;;;;8.16;76.14;97186.19;4107845;28;20295;-52
2022/03/30 07:12:29;;;;;;;11.88;7.72;;;;;;;8.10;75.99;97192.69;4138083;28;20795;-52
2022/03/30 07:14:31;;;;;;;12.90;8.88;;;;;;;8.02;76.63;97182.31;4153614;28;20228;-53
2022/03/30 07:16:33;;;;;;;8.13;7.35;;;;;;;8.08;76.43;97189.44;4137090;28;20782;-52
2022/03/30 07:18:34;;;;;;;10.05;9.15;;;;;;;7.92;76.57;97187.72;4140652;28;20563;-53
2022/03/30 07:20:37;;;;;;;8.38;7.40;;;;;;;8.07;76.56;97187.78;4156041;28;20228;-53
2022/03/30 07:22:38;;;;;;;10.02;9.07;;;;;;;8.07;75.88;97188.59;4140078;28;20229;-53
2022/03/30 07:24:41;;;;;;;9.90;8.90;;;;;;;8.12;75.93;97185.06;4151568;28;20209;-52
2022/03/30 07:26:42;;;;;;;10.43;8.60;;;;;;;8.07;76.65;97183.16;4152883;28;20642;-52
2022/03/30 07:28:44;;;;;;;9.77;9.02;;;;;;;8.25;75.38;97176.44;4154467;28;20204;-53
2022/03/30 07:30:50;;;;;;;11.93;7.57;;;;;;;7.97;75.72;97185.03;4135014;28;20244;-52
2022/03/30 07:32:53;;;;;;;9.88;8.98;;;;;;;8.08;75.65;97184.00;4154165;28;20246;-52
2022/03/30 07:34:55;;;;;;;8.32;7.53;;;;;;;8.17;75.73;97185.94;4153917;28;20567;-52
2022/03/30 07:36:57;;;;;;;11.55;8.52;;;;;;;8.20;75.48;97192.75;4140586;28;20217;-53
2022/03/30 07:39:04;;;;;;;9.07;7.70;;;;;;;8.17;76.07;97185.09;4153474;28;20213;-53
2022/03/30 07:41:06;;;;;;;10.88;8.43;;;;;;;8.13;76.30;97187.53;4138654;28;20231;-54
2022/03/30 07:43:09;;;;;;;7.88;7.07;;;;;;;8.19;75.92;97180.19;4156146;28;20278;-51
2022/03/30 07:45:13;;;;;;;9.30;8.35;;;;;;;8.22;75.61;97190.59;4153627;28;20279;-53
2022/03/30 07:47:17;;;;;;;8.50;7.68;;;;;;;8.23;76.04;97181.34;4137996;28;20197;-54
2022/03/30 07:49:31;;;;;;;10.48;9.40;;;;;;;8.09;76.58;97191.06;4151754;28;20697;-52
2022/03/30 07:51:33;;;;;;;9.43;8.15;;;;;;;8.17;75.91;97183.22;4136643;28;20233;-52
2022/03/30 07:53:35;;;;;;;8.15;7.35;;;;;;;8.31;75.86;97197.16;4137221;28;20241;-54
2022/03/30 07:55:47;;;;;;;9.48;8.45;;;;;;;8.40;75.54;97190.94;4124750;28;20206;-53
2022/03/30 07:57:49;;;;;;;9.75;7.55;;;;;;;8.31;75.76;97194.44;4139065;28;20240;-53
2022/03/30 07:59:50;;;;;;;9.13;8.20;;;;;;;8.30;75.47;97198.25;4139382;28;20240;-54
2022/03/30 08:01:54;;;;;;;10.15;9.13;;;;;;;8.24;76.13;97193.88;4136757;28;20229;-53
2022/03/30 08:03:56;;;;;;;9.35;8.38;;;;;;;8.23;76.25;97197.69;4154028;28;20710;-53
2022/03/30 08:06:00;;;;;;;9.82;8.23;;;;;;;8.33;75.04;97192.25;4139464;28;20257;-52
2022/03/30 08:08:02;;;;;;;10.00;8.75;;;;;;;8.28;75.50;97195.00;4154280;28;20213;-53
2022/03/30 08:10:10;;;;;;;9.35;8.43;;;;;;;8.23;76.04;97198.50;4137439;28;20945;-53
2022/03/30 08:12:14;;;;;;;10.35;9.30;;;;;;;8.33;75.79;97198.53;4138080;28;20280;-52
2022/03/30 08:14:16;;;;;;;10.63;9.52;;;;;;;8.36;75.27;97198.00;4137027;28;20217;-52
2022/03/30 08:16:21;;;;;;;13.73;8.82;;;;;;;8.44;75.08;97196.66;4137709;28;20209;-50
2022/03/30 08:18:25;;;;;;;20.83;10.20;;;;;;;8.38;75.63;97203.19;4137410;28;20210;-53
2022/03/30 08:22:48;;;;;;;8.55;7.65;;;;;;;8.25;76.05;97200.97;4135973;28;20252;-51
2022/03/30 08:24:50;;;;;;;9.18;8.32;;;;;;;8.44;75.22;97200.22;4121070;28;20242;-53
2022/03/30 08:26:55;;;;;;;11.52;9.75;;;;;;;8.40;75.25;97198.28;4134909;28;20300;-53
2022/03/30 08:28:57;;;;;;;13.10;9.70;;;;;;;8.42;75.60;97207.03;4152731;28;20209;-54
2022/03/30 08:30:59;;;;;;;9.02;8.25;;;;;;;8.40;74.93;97203.72;4119689;28;20249;-54
2022/03/30 08:33:04;;;;;;;12.00;10.77;;;;;;;8.20;75.69;97203.66;4136209;28;20225;-54
2022/03/30 08:35:12;;;;;;;9.18;7.32;;;;;;;8.18;75.39;97205.81;4134034;28;20758;-52
2022/03/30 08:37:20;;;;;;;9.77;8.70;;;;;;;8.24;75.41;97204.78;4136151;28;20305;-54
2022/03/30 08:39:26;;;;;;;7.80;6.32;;;;;;;8.08;76.15;97201.13;4137951;28;20216;-55
2022/03/30 08:41:29;;;;;;;8.75;7.90;;;;;;;8.04;76.94;97210.09;4151012;28;20259;-51
2022/03/30 08:43:31;;;;;;;9.43;8.23;;;;;;;8.16;75.79;97213.44;4137414;28;20221;-53
2022/03/30 08:45:32;;;;;;;9.70;8.88;;;;;;;8.20;76.18;97204.50;4150720;28;20205;-53
2022/03/30 08:47:35;;;;;;;11.35;8.90;;;;;;;8.24;75.49;97208.34;4136482;28;20235;-52
2022/03/30 08:49:42;;;;;;;8.52;7.63;;;;;;;8.33;76.08;97211.31;4117038;28;20217;-53
2022/03/30 08:51:49;;;;;;;9.32;8.43;;;;;;;8.34;75.45;97210.28;4133343;28;20228;-51
2022/03/30 08:53:51;;;;;;;8.35;7.57;;;;;;;8.24;75.61;97211.06;4117531;28;20234;-52
2022/03/30 08:55:54;;;;;;;14.13;8.15;;;;;;;8.24;75.73;97202.88;4135884;28;20244;-52
2022/03/30 08:57:56;;;;;;;8.25;7.45;;;;;;;8.34;75.71;97204.81;4135283;28;20264;-53
2022/03/30 09:00:05;;;;;;;8.75;7.80;;;;;;;8.46;75.17;97208.09;4134453;28;22508;-52
2022/03/30 09:02:08;;;;;;;8.60;7.75;;;;;;;8.53;75.87;97203.22;4139864;28;20225;-53
2022/03/30 09:04:12;;;;;;;9.13;7.25;;;;;;;8.29;76.18;97202.06;4137336;28;20201;-53
2022/03/30 09:06:28;;;;;;;11.80;6.35;;;;;;;8.15;77.14;97211.81;4148873;28;20315;-53
2022/03/30 09:08:30;;;;;;;9.85;8.73;;;;;;;8.14;76.33;97215.59;4154662;28;20192;-52
2022/03/30 09:10:32;;;;;;;10.30;9.30;;;;;;;8.12;76.62;97201.41;4135990;28;20439;-54
2022/03/30 09:12:38;;;;;;;7.88;7.15;;;;;;;8.12;76.11;97212.31;4137483;28;20349;-52
2022/03/30 09:14:42;;;;;;;7.10;6.40;;;;;;;8.08;76.49;97203.84;4119251;28;20226;-53
2022/03/30 09:16:47;;;;;;;7.32;6.65;;;;;;;8.11;76.52;97202.50;4118705;28;20602;-53
2022/03/30 09:19:09;;;;;;;7.68;6.70;;;;;;;8.18;76.18;97211.25;4135956;28;20201;-52
2022/03/30 09:21:11;;;;;;;7.75;6.93;;;;;;;8.08;76.43;97205.78;4134800;28;20562;-52
2022/03/30 09:23:14;;;;;;;7.50;6.80;;;;;;;8.16;76.26;97213.44;4151221;28;20217;-53
2022/03/30 09:25:22;;;;;;;9.73;8.27;;;;;;;8.27;76.24;97212.41;4133651;28;20286;-52
2022/03/30 09:27:24;;;;;;;8.40;7.00;;;;;;;8.17;76.52;97205.00;4149781;28;20243;-52
2022/03/30 09:29:31;;;;;;;7.30;6.57;;;;;;;8.21;76.37;97205.31;4135026;28;20244;-52
2022/03/30 09:31:54;;;;;;;8.60;7.80;;;;;;;8.26;76.00;97213.50;4134687;28;20230;-52
2022/03/30 09:34:00;;;;;;;9.05;7.22;;;;;;;8.28;76.58;97203.16;4150196;28;20213;-52
2022/03/30 09:36:02;;;;;;;8.85;6.85;;;;;;;8.32;75.97;97206.97;4150919;28;20212;-51
2022/03/30 09:38:08;;;;;;;9.07;8.18;;;;;;;8.33;76.32;97209.44;4150902;28;20629;-52
2022/03/30 09:40:11;;;;;;;9.75;8.88;;;;;;;8.43;76.22;97211.38;4150488;28;20264;-52
2022/03/30 09:42:14;;;;;;;8.45;7.63;;;;;;;8.33;76.26;97208.59;4150771;28;20221;-51
2022/03/30 09:44:17;;;;;;;9.38;8.20;;;;;;;8.30;76.02;97201.78;4152847;28;20633;-52
2022/03/30 09:46:19;;;;;;;7.38;6.63;;;;;;;8.32;75.90;97201.53;4135875;28;20680;-53
2022/03/30 09:48:24;;;;;;;10.85;8.35;;;;;;;8.28;75.91;97198.50;4137606;28;20240;-54
2022/03/30 09:50:29;;;;;;;8.75;7.63;;;;;;;8.36;75.95;97208.09;4135424;28;20260;-53
2022/03/30 09:52:33;;;;;;;11.00;8.35;;;;;;;8.24;77.49;97207.50;4151663;28;20242;-53